Flight Track Log - Related Links

Times and Time Zones

All times are in EDT time to prevent confusion due to time zone crossing. See the FFT303 flight status page for this flight to view local times or setup timezone preferences in your user account.

Time Position Orientation Groundspeed Altitude Reporting Facility
EDT Latitude Longitude Course Direction KTS MPH feet Rate Location/Type
Mon 07:48:48 PM 41.8167 -87.7667 236° Southwest 201 231 2,900  Level Chicago TRACON
Mon 07:49:48 PM 41.7833 -87.8333 236° Southwest 246 283 4,000 1,800 Climbing Chicago TRACON
Mon 07:50:48 PM 41.7333 -87.9000 225° Southwest 270 311 6,500 2,440 Climbing Chicago TRACON
Mon 07:51:19 PM 41.7325 -87.9508 269° West 286 329 7,700 2,258 Climbing Chicago Center
Mon 07:53:00 PM 41.7582 -88.1850 262° West  Level FlightAware Approximate
Mon 07:55:27 PM 41.7406 -88.4369 270° West 345 397 17,000  Level Chicago Center
Mon 07:56:29 PM 41.7369 -88.5717 268° West 361 415 19,500 2,355 Climbing Chicago Center
Mon 07:58:33 PM 41.7250 -88.8789 267° West 387 445 24,300 2,118 Climbing Chicago Center
Mon 07:59:36 PM 41.7208 -89.0272 268° West 399 459 26,100 1,566 Climbing Chicago Center
Mon 08:00:00 PM 41.6901 -89.1560 262° West  Level FlightAware Approximate
Mon 08:01:00 PM 41.6833 -89.2947 270° West  Level FlightAware Approximate
Mon 08:01:00 PM 41.7000 -89.2308 270° West  Level FlightAware Approximate
Mon 08:02:42 PM 41.7056 -89.5350 270° West 439 505 30,800  Level Chicago Center
Mon 08:04:00 PM 41.6775 -89.7218 259° West  Level FlightAware Approximate
Mon 08:04:46 PM 41.6947 -89.8597 259° West 455 524 33,700  Level Chicago Center
Mon 08:06:00 PM 41.6814 -90.0404 264° West  Level FlightAware Approximate
Mon 08:06:50 PM 41.6814 -90.2264 264° West 449 517 37,300  Level Chicago Center
Mon 08:07:52 PM 41.6728 -90.3919 266° West 449 517 38,000 339 Climbing Chicago Center
Mon 08:08:00 PM 41.6667 -90.2543 270° West  Level FlightAware Approximate
Mon 08:08:54 PM 41.6658 -90.5533 267° West 438 504 38,000  Level Chicago Center
Mon 08:10:00 PM 41.6562 -90.7140 265° West  Level FlightAware Approximate
Mon 08:10:57 PM 41.6519 -90.8867 265° West 436 502 38,000  Level Chicago Center
Mon 08:11:59 PM 41.6442 -91.0467 266° West 436 502 38,000  Level Chicago Center
Mon 08:13:01 PM 41.6364 -91.2064 266° West 435 501 38,000  Level Chicago Center
Mon 08:14:03 PM 41.6278 -91.3669 266° West 436 502 38,000 -48 Level Chicago Center
Mon 08:15:05 PM 41.6183 -91.5561 266° West 429 494 37,900  Descending Chicago Center
Mon 08:16:07 PM 41.6106 -91.7142 266° West 429 494 38,000 48 Climbing Chicago Center
Mon 08:17:09 PM 41.6017 -91.8731 266° West 431 496 38,000  Level Chicago Center
Mon 08:18:11 PM 41.5933 -92.0306 266° West 429 494 38,000  Level Chicago Center
Mon 08:19:13 PM 41.5842 -92.1881 266° West 428 493 38,000  Level Chicago Center
Mon 08:20:15 PM 41.5733 -92.3772 266° West 428 493 38,000  Level Chicago Center
Mon 08:21:17 PM 41.5633 -92.5342 265° West 427 491 38,000  Level Chicago Center
Mon 08:22:00 PM 41.5569 -92.6342 265° West 428 493 38,000  Level Minneapolis Center
Mon 08:23:02 PM 41.5475 -92.7908 265° West 428 493 38,000  Level Minneapolis Center
Mon 08:24:04 PM 41.5358 -92.9783 265° West 428 493 38,000  Level Minneapolis Center
Mon 08:25:06 PM 41.5261 -93.1306 265° West 422 486 38,000  Level Minneapolis Center
Mon 08:26:08 PM 41.5153 -93.2864 265° West 424 488 38,000  Level Minneapolis Center
Mon 08:28:12 PM 41.4942 -93.6183 265° West 413 475 38,000 -32 Level Minneapolis Center
Mon 08:29:14 PM 41.4833 -93.7700 265° West 414 476 37,900  Descending Minneapolis Center
Mon 08:30:16 PM 41.4719 -93.9231 264° West 417 480 38,000 48 Climbing Minneapolis Center
Mon 08:31:18 PM 41.4608 -94.0767 265° West 420 483 38,000  Level Minneapolis Center
Mon 08:32:20 PM 41.4478 -94.2483 264° West 421 484 38,000  Level Minneapolis Center
Mon 08:33:23 PM 41.4358 -94.4036 264° West 421 484 38,000 -32 Level Minneapolis Center
Mon 08:35:27 PM 41.4125 -94.7069 264° West 411 473 37,900 -32 Descending Minneapolis Center
Mon 08:36:29 PM 41.4000 -94.8567 264° West 409 471 37,900 32 Level Minneapolis Center
Mon 08:38:00 PM 41.3806 -95.0745 263° West  Level FlightAware Approximate
Mon 08:38:33 PM 41.3722 -95.1889 263° West 410 472 38,000  Level Minneapolis Center
Mon 08:39:35 PM 41.3592 -95.3394 263° West 409 471 38,000  Level Minneapolis Center
Mon 08:40:37 PM 41.3453 -95.4906 263° West 411 473 38,000  Level Minneapolis Center
Mon 08:41:39 PM 41.3314 -95.6558 264° West 412 474 38,000  Level Minneapolis Center
Mon 08:42:41 PM 41.3197 -95.8075 264° West 412 474 38,000  Level Minneapolis Center
Mon 08:43:43 PM 41.3053 -95.9583 263° West 411 473 38,000  Level Minneapolis Center
Mon 08:44:58 PM 41.2889 -96.1397 260° West 411 473 38,000  Level Minneapolis Center
Mon 08:45:00 PM 41.2798 -96.1406 260° West  Level FlightAware Approximate
Mon 08:46:00 PM 41.2722 -96.3217 263° West 412 474 38,000  Level Minneapolis Center
Mon 08:47:02 PM 41.2567 -96.4717 262° West 411 473 38,000  Level Minneapolis Center
Mon 08:49:06 PM 41.2275 -96.7683 263° West 405 466 38,000  Level Minneapolis Center
Mon 08:50:08 PM 41.2136 -96.9158 263° West 404 465 38,000  Level Minneapolis Center
Mon 08:51:10 PM 41.1983 -97.0639 262° West 405 466 38,000  Level Minneapolis Center
Mon 08:52:12 PM 41.1828 -97.2119 262° West 405 466 38,000  Level Minneapolis Center
Mon 08:54:00 PM 41.1529 -97.4684 261° West  Level FlightAware Approximate
Mon 08:54:50 PM 41.1403 -97.6328 261° West 410 472 38,000  Level Denver Center
Mon 08:55:43 PM 41.1297 -97.7214 261° West 409 471 38,000  Level Minneapolis Center
Mon 08:56:45 PM 41.1108 -97.9000 262° West 408 470 38,000  Level Minneapolis Center
Mon 08:57:59 PM 41.0950 -98.0489 262° West 407 468 38,000  Level Minneapolis Center
Mon 08:59:01 PM 41.0783 -98.1972 262° West 407 468 38,000  Level Minneapolis Center
Mon 09:00:04 PM 41.0553 -98.4061 262° West 408 470 38,000  Level Minneapolis Center
Mon 09:02:02 PM 41.0258 -98.6786 262° West 410 472 38,000  Level Denver Center
Mon 09:03:10 PM 41.0056 -98.8503 261° West 410 472 38,000  Level Minneapolis Center
Mon 09:04:12 PM 40.9886 -98.9992 261° West 410 472 38,000  Level Minneapolis Center
Mon 09:05:08 PM 40.9706 -99.1603 262° West 404 465 38,000  Level Denver Center
Mon 09:06:09 PM 40.9533 -99.3069 261° West 403 464 38,000 -195 Level Denver Center
Mon 09:08:13 PM 40.9194 -99.5978 261° West 400 460 37,400 -355 Descending Denver Center
Mon 09:09:15 PM 40.9017 -99.7433 261° West 401 461 36,900 -488 Descending Denver Center
Mon 09:10:16 PM 40.8828 -99.9014 261° West 392 451 36,400 -488 Descending Denver Center
Mon 09:11:18 PM 40.8658 -100.0364 261° West 389 448 35,900 -484 Descending Denver Center
Mon 09:13:22 PM 40.8292 -100.3250 261° West 383 441 34,900 -484 Descending Denver Center
Mon 09:14:24 PM 40.8122 -100.4550 260° West 376 433 34,400 -292 Descending Denver Center
Mon 09:16:27 PM 40.7731 -100.7344 260° West 374 430 34,000 -130 Descending Denver Center
Mon 09:17:29 PM 40.7522 -100.8647 258° West 370 426 34,000  Level Denver Center
Mon 09:18:31 PM 40.7281 -101.0139 258° West 370 426 34,000  Level Denver Center
Mon 09:19:32 PM 40.7064 -101.1414 257° West 371 427 34,000  Level Denver Center
Mon 09:20:34 PM 40.6803 -101.2900 257° West 374 430 34,000  Level Denver Center
Mon 09:21:36 PM 40.6586 -101.4175 257° West 374 430 34,000  Level Denver Center
Mon 09:22:38 PM 40.6358 -101.5456 257° West 375 432 34,000  Level Denver Center
Mon 09:23:40 PM 40.6089 -101.6947 257° West 376 433 34,000  Level Denver Center
Mon 09:24:41 PM 40.5856 -101.8225 257° West 376 433 34,000  Level Denver Center
Mon 09:25:43 PM 40.5586 -101.9728 257° West 379 436 34,000  Level Denver Center
Mon 09:26:45 PM 40.5350 -102.1008 256° West 378 435 34,000  Level Denver Center
Mon 09:27:47 PM 40.5067 -102.2497 256° West 377 434 34,000  Level Denver Center
Mon 09:28:49 PM 40.4831 -102.3797 257° West 383 441 34,000  Level Denver Center
Mon 09:29:51 PM 40.4550 -102.5292 256° West 378 435 34,000  Level Denver Center
Mon 09:30:53 PM 40.4319 -102.6592 257° West 381 438 34,000  Level Denver Center
Mon 09:31:55 PM 40.4044 -102.7967 255° West 377 434 34,000  Level Denver Center
Mon 09:32:57 PM 40.3792 -102.9333 256° West 382 440 34,000 -390 Level Denver Center
Mon 09:33:58 PM 40.3514 -103.0753 256° West 397 457 33,200 -976 Descending Denver Center
Mon 09:35:00 PM 40.3233 -103.2231 256° West 417 480 32,000 -1,887 Descending Denver Center
Mon 09:36:02 PM 40.2936 -103.3736 256° West 423 487 29,300 -2,711 Descending Denver Center
Mon 09:37:46 PM 40.2500 -103.6333 258° West 406 467 24,500 -2,758 Descending Denver TRACON
Mon 09:38:06 PM 40.2328 -103.6894 248° West 405 466 23,600 -1,610 Descending Denver Center
Mon 09:39:08 PM 40.2056 -103.8264 255° West 382 440 22,300 -1,645 Descending Denver Center
Mon 09:40:10 PM 40.1578 -103.9439 242° Southwest 348 400 20,200 -1,839 Descending Denver Center
Mon 09:41:12 PM 40.1092 -104.0489 239° Southwest 339 390 18,500 -1,632 Descending Denver Center
Mon 09:42:15 PM 40.0633 -104.1503 239° Southwest 326 375 16,800 -1,680 Descending Denver Center
Mon 09:43:17 PM 40.0131 -104.2575 239° Southwest 323 372 15,000 -1,355 Descending Denver Center
Mon 09:44:19 PM 39.9669 -104.3567 239° Southwest 320 368 14,000 -1,013 Descending Denver Center
Mon 09:44:34 PM 39.9500 -104.3833 230° Southwest 319 367 13,700 -1,040 Descending Denver TRACON
Mon 09:45:34 PM 39.9167 -104.4833 247° West 292 336 12,700 -947 Descending Denver TRACON
Mon 09:46:28 PM 39.8500 -104.5000 191° South 238 274 11,900 -895 Descending Denver TRACON
Mon 09:47:28 PM 39.8000 -104.5000 180° South 192 221 11,000 -1,068 Descending Denver TRACON
Mon 09:48:26 PM 39.7436 -104.5017 181° South 192 221 9,800 -1,250 Descending Denver Center
Mon 09:49:28 PM 39.6919 -104.5042 182° South 188 216 8,500 -871 Descending Denver Center
Mon 09:50:30 PM 39.6636 -104.5558 235° Southwest 197 227 8,000 -419 Descending Denver Center
Mon 09:52:34 PM 39.7244 -104.6347 315° West 190 219 7,200 -516 Descending Denver Center
Mon 09:53:36 PM 39.7800 -104.6428 354° North 181 208 6,400 -774 Descending Denver Center
Mon 09:54:38 PM 39.8203 -104.6422 North 150 173 5,600 -774 Descending Denver Center
Mon 09:57:00 PM 39.8500 -104.6667 341° North  Level FlightAware Approximate
Mon 10:04:00 PM 39.8617 -104.6732 341° North  Level Estimated
Mon 10:05:00 PM 39.8617 -104.6732 341° North  Level Estimated
Mon 10:06:00 PM 39.8617 -104.6732 341° North  Level Estimated

Login

Don't have an account? Register now (free) for customized features, flight alerts, and more!